Time;durP1;ratioP1;P1;durP2;ratioP2;P2;SDS_P1;SDS_P2;PMS_P1;PMS_P2;Temp;Humidity;BMP_temperature;BMP_pressure;BME280_temperature;BME280_humidity;BME280_pressure;Samples;Min_cycle;Max_cycle;Signal;HPM_P1;HPM_P2
2024/01/17 00:01:58;;;;;;;18.38;10.43;;;-2.10;99.90;;;;;;4937414;28;20511;-86
2024/01/17 00:04:25;;;;;;;13.95;10.20;;;-2.20;99.90;;;;;;4879849;28;20027;-86
2024/01/17 00:06:51;;;;;;;16.73;11.13;;;-2.20;99.90;;;;;;4875636;28;20027;-85
2024/01/17 00:09:18;;;;;;;15.25;10.50;;;-2.20;99.90;;;;;;4921290;28;20031;-86
2024/01/17 00:11:44;;;;;;;13.60;9.77;;;-2.20;99.90;;;;;;4876433;28;20391;-85
2024/01/17 00:14:10;;;;;;;13.60;10.63;;;-2.30;99.90;;;;;;4926662;28;20023;-85
2024/01/17 00:16:36;;;;;;;16.42;10.70;;;-2.20;99.90;;;;;;4929207;28;20058;-85
2024/01/17 00:19:01;;;;;;;17.40;11.45;;;-2.20;99.90;;;;;;4913316;28;21095;-85
2024/01/17 00:21:27;;;;;;;14.75;10.88;;;-2.20;99.90;;;;;;4953968;28;20027;-86
2024/01/17 00:23:53;;;;;;;16.35;10.55;;;-2.20;99.90;;;;;;4941797;28;20027;-85
2024/01/17 00:26:19;;;;;;;15.20;11.30;;;-2.20;99.90;;;;;;4897022;28;20027;-86
2024/01/17 00:28:44;;;;;;;16.27;10.38;;;-2.20;99.90;;;;;;4959908;28;20027;-86
2024/01/17 00:31:10;;;;;;;15.25;11.13;;;-2.30;99.90;;;;;;4929202;28;21876;-86
2024/01/17 00:33:35;;;;;;;19.85;10.98;;;-2.30;99.90;;;;;;4951341;28;20090;-87
2024/01/17 00:36:01;;;;;;;13.57;9.95;;;-2.30;99.90;;;;;;4923954;28;20133;-86
2024/01/17 00:38:27;;;;;;;17.13;11.38;;;-2.30;99.90;;;;;;4918201;28;20031;-84
2024/01/17 00:40:52;;;;;;;15.70;12.05;;;-2.30;99.90;;;;;;4943069;28;20121;-84
2024/01/17 00:43:18;;;;;;;20.33;10.52;;;-2.40;99.90;;;;;;4927982;28;20081;-84
2024/01/17 00:45:44;;;;;;;17.65;11.20;;;-2.40;99.90;;;;;;4946706;28;20448;-85
2024/01/17 00:48:13;;;;;;;17.75;11.60;;;-2.40;99.90;;;;;;4928527;28;20699;-85
2024/01/17 00:50:39;;;;;;;16.25;12.25;;;-2.40;99.90;;;;;;4931674;28;20023;-83
2024/01/17 00:53:05;;;;;;;18.08;11.45;;;-2.40;99.90;;;;;;4945208;28;20026;-85
2024/01/17 00:55:31;;;;;;;16.98;11.75;;;-2.40;99.90;;;;;;4910097;28;20026;-83
2024/01/17 00:57:57;;;;;;;19.35;11.73;;;-2.30;99.90;;;;;;4916057;28;20031;-86
2024/01/17 01:00:22;;;;;;;13.98;10.68;;;-2.30;99.90;;;;;;4946252;28;20528;-84
2024/01/17 01:02:51;;;;;;;14.45;11.43;;;-2.30;99.90;;;;;;4936580;28;20023;-84
2024/01/17 01:05:24;;;;;;;15.52;12.18;;;-2.30;99.90;;;;;;4909315;28;20026;-85
2024/01/17 01:07:51;;;;;;;17.00;11.00;;;-2.20;99.90;;;;;;4949672;28;20035;-84
2024/01/17 01:10:16;;;;;;;16.80;11.60;;;-2.20;99.90;;;;;;4921806;28;20453;-84
2024/01/17 01:12:42;;;;;;;20.67;13.52;;;-2.20;99.90;;;;;;4945524;28;20169;-85
2024/01/17 01:15:08;;;;;;;18.13;12.00;;;-2.10;99.90;;;;;;4926704;28;20126;-84
2024/01/17 01:17:34;;;;;;;16.65;11.45;;;-2.10;99.90;;;;;;4932725;28;21111;-86
2024/01/17 01:19:59;;;;;;;16.85;12.00;;;-2.10;99.90;;;;;;4975162;28;20037;-86
2024/01/17 01:22:25;;;;;;;19.17;11.50;;;-2.10;99.90;;;;;;4943112;28;20034;-85
2024/01/17 01:24:50;;;;;;;14.18;11.18;;;-2.00;99.90;;;;;;4937667;28;20041;-85
2024/01/17 01:27:16;;;;;;;14.77;10.52;;;-2.00;99.90;;;;;;4946788;28;20030;-87
2024/01/17 01:29:42;;;;;;;15.07;11.25;;;-2.00;99.90;;;;;;4944912;28;20030;-86
2024/01/17 01:32:08;;;;;;;19.52;12.02;;;-2.00;99.90;;;;;;4968393;28;20554;-86
2024/01/17 01:34:33;;;;;;;17.77;11.20;;;-2.00;99.90;;;;;;4915303;28;20026;-87
2024/01/17 01:37:00;;;;;;;17.38;10.55;;;-1.90;99.90;;;;;;4916524;28;20510;-85
2024/01/17 01:39:26;;;;;;;16.63;11.05;;;-1.90;99.90;;;;;;4938042;28;20483;-85
2024/01/17 01:41:51;;;;;;;14.95;11.25;;;-1.90;99.90;;;;;;4930663;28;20094;-85
2024/01/17 01:44:17;;;;;;;17.33;11.40;;;-1.90;99.90;;;;;;4916092;28;20218;-85
2024/01/17 01:46:45;;;;;;;16.08;12.02;;;-1.90;99.90;;;;;;4935785;28;20779;-86
2024/01/17 01:49:12;;;;;;;14.73;10.85;;;-1.80;99.90;;;;;;4912121;28;20027;-85
2024/01/17 01:51:39;;;;;;;16.15;10.38;;;-1.80;99.90;;;;;;4936302;28;20109;-84
2024/01/17 01:54:05;;;;;;;16.30;10.60;;;-1.80;99.90;;;;;;4926216;28;20038;-85
2024/01/17 01:56:34;;;;;;;16.58;11.55;;;-1.80;99.90;;;;;;4932923;28;21103;-85
2024/01/17 01:59:01;;;;;;;20.95;11.02;;;-1.80;99.90;;;;;;4942516;28;20026;-85
2024/01/17 02:01:28;;;;;;;16.13;11.15;;;-1.80;99.90;;;;;;4921834;28;20113;-84
2024/01/17 02:03:56;;;;;;;14.57;10.52;;;-1.80;99.90;;;;;;4919005;28;20565;-85
2024/01/17 02:06:23;;;;;;;17.23;10.90;;;-1.80;99.90;;;;;;4929692;28;20026;-86
2024/01/17 02:08:55;;;;;;;12.98;9.80;;;-1.80;99.90;;;;;;4935084;28;20577;-85
2024/01/17 02:11:20;;;;;;;16.17;11.43;;;-1.80;99.90;;;;;;4937987;28;20022;-85
2024/01/17 02:13:46;;;;;;;17.00;11.50;;;-1.80;99.90;;;;;;4944432;28;20035;-86
2024/01/17 02:16:13;;;;;;;15.57;10.57;;;-1.80;99.90;;;;;;4911532;28;20039;-85
2024/01/17 02:18:39;;;;;;;14.23;9.65;;;-1.80;99.90;;;;;;4936638;28;20026;-85
2024/01/17 02:21:05;;;;;;;16.60;10.77;;;-1.80;99.90;;;;;;4924160;28;20031;-86
2024/01/17 02:23:30;;;;;;;20.30;10.38;;;-1.80;99.90;;;;;;4936660;28;20410;-85
2024/01/17 02:25:57;;;;;;;14.40;10.55;;;-1.80;99.90;;;;;;4939325;28;20369;-85
2024/01/17 02:28:27;;;;;;;14.98;10.60;;;-1.80;99.90;;;;;;4920785;28;20031;-86
2024/01/17 02:30:56;;;;;;;15.40;10.80;;;-1.80;99.90;;;;;;4918281;28;20085;-85
2024/01/17 02:33:22;;;;;;;23.30;10.57;;;-1.80;99.90;;;;;;4937695;28;20100;-84
2024/01/17 02:35:47;;;;;;;18.80;10.85;;;-1.80;99.90;;;;;;4922495;28;20450;-85
2024/01/17 02:38:31;;;;;;;13.68;9.60;;;-1.80;99.90;;;;;;4939431;28;20027;-84
2024/01/17 02:40:57;;;;;;;14.63;10.32;;;-1.90;99.90;;;;;;4950346;28;20038;-85
2024/01/17 02:43:23;;;;;;;17.25;10.40;;;-1.90;99.90;;;;;;4924513;28;20034;-84
2024/01/17 02:45:55;;;;;;;12.13;9.18;;;-1.90;99.90;;;;;;4933914;28;20031;-84
2024/01/17 02:48:20;;;;;;;15.38;9.45;;;-1.90;99.90;;;;;;4947958;28;20037;-85
2024/01/17 02:50:46;;;;;;;15.65;10.25;;;-1.90;99.90;;;;;;4929045;28;20187;-85
2024/01/17 02:53:32;;;;;;;16.10;10.57;;;-1.90;99.90;;;;;;4938771;28;20073;-85
2024/01/17 02:55:57;;;;;;;13.07;10.02;;;-1.90;99.90;;;;;;4951674;28;20503;-84
2024/01/17 02:58:29;;;;;;;16.02;9.93;;;-1.90;99.90;;;;;;4932811;28;20114;-86
2024/01/17 03:00:58;;;;;;;17.05;10.23;;;-1.90;99.90;;;;;;4935602;28;20650;-85
2024/01/17 03:03:23;;;;;;;17.52;10.40;;;-1.90;99.90;;;;;;4935596;28;20773;-85
2024/01/17 03:05:49;;;;;;;16.83;10.00;;;-1.80;99.90;;;;;;4936512;28;20092;-85
2024/01/17 03:08:28;;;;;;;14.40;10.93;;;-1.80;99.90;;;;;;4939251;28;20042;-86
2024/01/17 03:10:53;;;;;;;15.32;9.70;;;-1.80;99.90;;;;;;4955790;28;20126;-85
2024/01/17 03:13:19;;;;;;;13.45;10.35;;;-1.80;99.90;;;;;;4939931;28;20097;-85
2024/01/17 03:16:06;;;;;;;18.05;10.07;;;-1.80;99.90;;;;;;4958008;28;20034;-85
2024/01/17 03:18:31;;;;;;;18.75;9.93;;;-1.80;99.90;;;;;;4952957;28;20100;-85
2024/01/17 03:20:57;;;;;;;12.88;10.23;;;-1.80;99.90;;;;;;4957753;28;20026;-86
2024/01/17 03:23:25;;;;;;;13.30;8.50;;;-1.80;99.90;;;;;;4948944;28;20138;-84
2024/01/17 03:25:51;;;;;;;14.27;8.85;;;-1.80;99.90;;;;;;4944399;28;20561;-87
2024/01/17 03:28:16;;;;;;;14.63;9.38;;;-1.80;99.90;;;;;;4944759;28;20026;-84
2024/01/17 03:30:58;;;;;;;17.98;9.23;;;-1.80;99.90;;;;;;4958801;28;20073;-85
2024/01/17 03:33:24;;;;;;;14.18;9.77;;;-1.80;99.90;;;;;;4962124;28;20812;-85
2024/01/17 03:35:49;;;;;;;13.35;8.45;;;-1.70;99.90;;;;;;4945956;28;20119;-85
2024/01/17 03:38:18;;;;;;;14.70;9.43;;;-1.80;99.90;;;;;;4935028;28;20042;-85
2024/01/17 03:40:44;;;;;;;14.10;10.13;;;-1.80;99.90;;;;;;4935237;28;20023;-85
2024/01/17 03:43:10;;;;;;;14.30;9.75;;;-1.80;99.90;;;;;;4935746;28;21303;-86
2024/01/17 03:45:36;;;;;;;14.73;8.95;;;-1.80;99.90;;;;;;4953527;28;20500;-85
2024/01/17 03:48:02;;;;;;;13.52;9.52;;;-1.80;99.90;;;;;;4956247;28;20031;-85
2024/01/17 03:50:28;;;;;;;14.85;9.43;;;-1.80;99.90;;;;;;4930311;28;20026;-84
2024/01/17 03:52:54;;;;;;;18.17;9.70;;;-1.80;99.90;;;;;;4947562;28;20073;-88
2024/01/17 03:55:19;;;;;;;13.25;9.50;;;-1.80;99.90;;;;;;4927522;28;20030;-85
2024/01/17 03:57:51;;;;;;;15.73;9.57;;;-1.90;99.90;;;;;;4949361;28;20042;-85
2024/01/17 04:00:17;;;;;;;17.80;9.82;;;-1.90;99.90;;;;;;4952443;28;20113;-85
2024/01/17 04:02:42;;;;;;;16.42;9.43;;;-1.90;99.90;;;;;;4976759;28;20034;-87
2024/01/17 04:05:08;;;;;;;16.42;10.60;;;-1.90;99.90;;;;;;4936253;28;20118;-87
2024/01/17 04:07:33;;;;;;;13.20;10.07;;;-2.00;99.90;;;;;;4942340;28;20271;-86
2024/01/17 04:09:59;;;;;;;15.05;10.88;;;-2.00;99.90;;;;;;4929812;28;20049;-86
2024/01/17 04:12:24;;;;;;;15.68;10.55;;;-2.00;99.90;;;;;;4941455;28;21223;-86
2024/01/17 04:14:50;;;;;;;12.95;9.38;;;-2.10;99.90;;;;;;4967088;28;20410;-85
2024/01/17 04:17:16;;;;;;;17.42;9.75;;;-2.20;99.90;;;;;;4928426;28;20030;-85
2024/01/17 04:19:41;;;;;;;13.93;10.25;;;-2.20;99.90;;;;;;4929253;28;20033;-86
2024/01/17 04:22:07;;;;;;;12.63;9.65;;;-2.20;99.90;;;;;;4930122;28;20033;-85
2024/01/17 04:24:33;;;;;;;15.15;10.70;;;-2.20;99.90;;;;;;4937447;28;21435;-85
2024/01/17 04:26:58;;;;;;;14.52;10.68;;;-2.20;99.90;;;;;;4963002;28;20050;-85
2024/01/17 04:29:24;;;;;;;15.00;10.18;;;-2.30;99.90;;;;;;4928531;28;20030;-85
2024/01/17 04:31:49;;;;;;;13.10;10.32;;;-2.30;99.90;;;;;;4942956;28;20034;-86
2024/01/17 04:34:15;;;;;;;18.38;10.35;;;-2.30;99.90;;;;;;4933809;28;20029;-85
2024/01/17 04:36:41;;;;;;;18.00;10.55;;;-2.30;99.90;;;;;;4946164;28;20019;-84
2024/01/17 04:39:10;;;;;;;19.52;11.20;;;-2.30;99.90;;;;;;4952528;28;20027;-83
2024/01/17 04:41:36;;;;;;;17.67;10.40;;;-2.30;99.90;;;;;;4935862;28;20161;-85
2024/01/17 04:44:02;;;;;;;14.38;9.73;;;-2.30;99.90;;;;;;4915087;28;20514;-84
2024/01/17 04:46:28;;;;;;;13.70;9.90;;;-2.30;99.90;;;;;;4930122;28;20565;-84
2024/01/17 04:49:02;;;;;;;12.27;9.10;;;-2.30;99.90;;;;;;4920122;28;20118;-87
2024/01/17 04:51:28;;;;;;;14.30;10.27;;;-2.30;99.90;;;;;;4936385;28;21226;-84
2024/01/17 04:53:54;;;;;;;13.48;10.02;;;-2.30;99.90;;;;;;4966120;28;20404;-84
2024/01/17 04:56:19;;;;;;;17.35;10.30;;;-2.30;99.90;;;;;;4945060;28;20026;-85
2024/01/17 04:58:45;;;;;;;13.32;10.30;;;-2.30;99.90;;;;;;4952302;28;20053;-84
2024/01/17 05:01:11;;;;;;;17.40;10.43;;;-2.30;99.90;;;;;;4936021;28;20613;-84
2024/01/17 05:03:37;;;;;;;13.07;9.55;;;-2.30;99.90;;;;;;4954506;28;20198;-86
2024/01/17 05:06:05;;;;;;;13.15;9.45;;;-2.30;99.90;;;;;;4973619;28;20077;-85
2024/01/17 05:08:30;;;;;;;15.90;10.23;;;-2.30;99.90;;;;;;4941128;28;20030;-85
2024/01/17 05:10:56;;;;;;;19.70;10.15;;;-2.30;99.90;;;;;;4951866;28;20031;-85
2024/01/17 05:13:21;;;;;;;15.20;10.65;;;-2.30;99.90;;;;;;4945648;28;20042;-84
2024/01/17 05:15:49;;;;;;;13.88;9.07;;;-2.30;99.90;;;;;;4948591;28;20027;-85
2024/01/17 05:18:15;;;;;;;12.18;9.10;;;-2.30;99.90;;;;;;4952479;28;20175;-85
2024/01/17 05:20:41;;;;;;;18.20;9.88;;;-2.30;99.90;;;;;;4957860;28;20125;-84
2024/01/17 05:23:06;;;;;;;14.60;10.38;;;-2.30;99.90;;;;;;4944991;28;20042;-84
2024/01/17 05:25:32;;;;;;;15.25;10.82;;;-2.30;99.90;;;;;;4944804;28;20018;-87
2024/01/17 05:27:58;;;;;;;16.02;9.52;;;-2.30;99.90;;;;;;4932774;28;20030;-85
2024/01/17 05:30:25;;;;;;;15.13;9.80;;;-2.30;99.90;;;;;;4920929;28;21126;-84
2024/01/17 05:32:52;;;;;;;21.90;10.18;;;-2.30;99.90;;;;;;4955398;28;20034;-85
2024/01/17 05:35:18;;;;;;;15.45;10.68;;;-2.30;99.90;;;;;;4925666;28;20487;-84
2024/01/17 05:37:47;;;;;;;13.63;9.90;;;-2.20;99.90;;;;;;4938419;28;20139;-84
2024/01/17 05:40:13;;;;;;;13.00;9.82;;;-2.20;99.90;;;;;;4942041;28;20059;-84
2024/01/17 05:42:40;;;;;;;14.88;10.15;;;-2.30;99.90;;;;;;4927457;28;20088;-85
2024/01/17 05:45:17;;;;;;;14.45;9.82;;;-2.30;99.90;;;;;;4949472;28;20045;-85
2024/01/17 05:47:43;;;;;;;13.65;9.15;;;-2.30;99.90;;;;;;4960450;28;20031;-85
2024/01/17 05:50:09;;;;;;;19.88;10.77;;;-2.30;99.90;;;;;;4926243;28;21405;-85
2024/01/17 05:52:38;;;;;;;14.38;9.52;;;-2.20;99.90;;;;;;4939714;28;20030;-85
2024/01/17 05:55:04;;;;;;;13.05;10.82;;;-2.30;99.90;;;;;;4922948;28;20034;-85
2024/01/17 05:57:29;;;;;;;16.95;10.93;;;-2.20;99.90;;;;;;4923962;28;21764;-85
2024/01/17 05:59:55;;;;;;;20.55;11.70;;;-2.20;99.90;;;;;;4944773;28;20028;-85
2024/01/17 06:02:20;;;;;;;23.70;13.15;;;-2.20;99.90;;;;;;4909985;28;20033;-85
2024/01/17 06:04:49;;;;;;;24.65;13.48;;;-2.10;99.90;;;;;;4926763;28;20031;-85
2024/01/17 06:07:16;;;;;;;14.70;11.05;;;-2.20;99.90;;;;;;4940855;28;20034;-84
2024/01/17 06:09:43;;;;;;;15.40;10.23;;;-2.20;99.90;;;;;;4901145;28;20019;-86
2024/01/17 06:12:10;;;;;;;13.95;9.75;;;-2.10;99.90;;;;;;4943489;28;20033;-84
2024/01/17 06:14:36;;;;;;;16.08;10.82;;;-2.20;99.90;;;;;;4932184;28;20023;-85
2024/01/17 06:17:01;;;;;;;16.88;10.38;;;-2.20;99.90;;;;;;4926291;28;20033;-85
2024/01/17 06:19:27;;;;;;;15.70;10.30;;;-2.10;99.90;;;;;;4875222;28;20031;-84
2024/01/17 06:21:52;;;;;;;16.08;10.63;;;-2.10;99.90;;;;;;4904907;28;20078;-85
2024/01/17 06:24:23;;;;;;;15.60;9.80;;;-2.10;99.90;;;;;;4894019;28;20038;-85
2024/01/17 06:26:48;;;;;;;14.40;8.95;;;-2.10;99.90;;;;;;4939530;28;20077;-84
2024/01/17 06:29:14;;;;;;;13.85;9.55;;;-2.10;99.90;;;;;;4890296;28;20406;-87
2024/01/17 06:31:39;;;;;;;11.85;9.20;;;-2.00;99.90;;;;;;4915340;28;20557;-85
2024/01/17 06:34:05;;;;;;;13.68;9.25;;;-2.00;99.90;;;;;;4882229;28;20549;-85
2024/01/17 06:36:32;;;;;;;14.98;8.35;;;-2.00;99.90;;;;;;4927642;28;21334;-84
2024/01/17 06:38:58;;;;;;;11.30;8.85;;;-2.00;99.90;;;;;;4934002;28;20032;-85
2024/01/17 06:41:24;;;;;;;9.95;7.68;;;-2.00;99.90;;;;;;4901588;28;20031;-84
2024/01/17 06:43:49;;;;;;;15.23;9.23;;;-2.00;99.90;;;;;;4910853;28;20110;-84
2024/01/17 06:46:15;;;;;;;10.73;8.32;;;-2.00;99.90;;;;;;4939861;28;20019;-88
2024/01/17 06:48:41;;;;;;;11.98;7.85;;;-2.00;99.90;;;;;;4868933;28;20029;-86
2024/01/17 06:51:06;;;;;;;15.00;8.23;;;-2.00;99.90;;;;;;4956193;28;20031;-86
2024/01/17 06:53:32;;;;;;;11.50;8.43;;;-2.00;99.90;;;;;;4903865;28;20031;-86
2024/01/17 06:55:58;;;;;;;14.40;7.70;;;-2.00;99.90;;;;;;4879983;28;20035;-84
2024/01/17 06:58:23;;;;;;;12.10;7.75;;;-1.90;99.90;;;;;;4940922;28;20065;-85
2024/01/17 07:00:49;;;;;;;15.13;8.07;;;-1.90;99.90;;;;;;4884179;28;20094;-85
2024/01/17 07:03:17;;;;;;;10.85;7.28;;;-1.90;99.90;;;;;;4899050;28;20030;-85
2024/01/17 07:05:44;;;;;;;12.77;7.65;;;-1.90;99.90;;;;;;4913118;28;20034;-86
2024/01/17 07:08:10;;;;;;;12.70;8.05;;;-1.90;99.90;;;;;;4903130;28;20416;-86
2024/01/17 07:10:36;;;;;;;13.00;7.28;;;-1.90;99.90;;;;;;4921672;28;20085;-85
2024/01/17 07:13:02;;;;;;;12.48;7.32;;;-1.90;99.90;;;;;;4887826;28;20035;-86
2024/01/17 07:15:27;;;;;;;10.02;6.38;;;-1.90;99.90;;;;;;4907015;28;20026;-84
2024/01/17 07:17:53;;;;;;;11.32;8.05;;;-1.90;99.90;;;;;;4943894;28;20033;-86
2024/01/17 07:20:19;;;;;;;13.07;6.30;;;-1.90;99.90;;;;;;4895341;28;20080;-86
2024/01/17 07:23:04;;;;;;;9.02;6.20;;;-1.90;99.90;;;;;;4917141;28;20541;-86
2024/01/17 07:25:31;;;;;;;9.70;7.38;;;-1.90;99.90;;;;;;4937268;28;20065;-86
2024/01/17 07:27:56;;;;;;;10.45;6.60;;;-1.90;99.90;;;;;;4880895;28;20035;-84
2024/01/17 07:30:22;;;;;;;11.32;6.88;;;-1.90;99.90;;;;;;4893643;28;20041;-83
2024/01/17 07:32:48;;;;;;;11.40;6.68;;;-1.90;99.90;;;;;;4946043;28;20034;-87
2024/01/17 07:35:14;;;;;;;9.95;6.07;;;-1.90;99.90;;;;;;4884032;28;20114;-85
2024/01/17 07:37:39;;;;;;;10.82;5.90;;;-1.90;99.90;;;;;;4920508;28;20039;-85
2024/01/17 07:40:06;;;;;;;14.25;6.50;;;-2.00;99.90;;;;;;4903635;28;20051;-85
2024/01/17 07:42:31;;;;;;;12.05;6.40;;;-1.90;99.90;;;;;;4918917;28;21508;-86
2024/01/17 07:44:57;;;;;;;10.02;6.30;;;-2.00;99.90;;;;;;4920555;28;20029;-86
2024/01/17 07:47:23;;;;;;;9.25;5.68;;;-2.00;99.90;;;;;;4891819;28;20023;-85
2024/01/17 07:50:09;;;;;;;9.65;5.53;;;-1.90;99.90;;;;;;4901710;28;20054;-85
2024/01/17 07:52:34;;;;;;;7.95;4.18;;;-2.00;99.90;;;;;;4930884;28;20034;-86
2024/01/17 07:55:00;;;;;;;9.60;5.68;;;-2.00;99.90;;;;;;4905881;28;20034;-85
2024/01/17 07:57:26;;;;;;;7.95;5.32;;;-2.00;99.90;;;;;;4902128;28;20030;-85
2024/01/17 07:59:51;;;;;;;11.20;6.35;;;-2.00;99.90;;;;;;4942755;28;20370;-85
2024/01/17 08:02:17;;;;;;;7.00;4.88;;;-2.00;99.90;;;;;;4907177;28;20026;-85
2024/01/17 08:04:56;;;;;;;;;;;;;;;;;;;;;
2024/01/17 08:07:24;;;;;;;10.13;5.53;;;-2.00;99.90;;;;;;4919730;28;20027;-85
2024/01/17 08:09:51;;;;;;;13.65;6.43;;;-2.00;99.90;;;;;;4904342;28;20147;-84
2024/01/17 08:12:23;;;;;;;9.40;5.07;;;-2.00;99.90;;;;;;4885061;28;20054;-84
2024/01/17 08:14:49;;;;;;;8.73;5.30;;;-2.00;99.90;;;;;;4913969;28;20094;-84
2024/01/17 08:17:14;;;;;;;6.72;5.03;;;-2.00;99.90;;;;;;4909149;28;20027;-85
2024/01/17 08:19:40;;;;;;;8.80;5.05;;;-1.90;99.90;;;;;;4940948;28;20031;-85
2024/01/17 08:22:10;;;;;;;7.05;4.82;;;-1.90;99.90;;;;;;4911044;28;20019;-85
2024/01/17 08:24:35;;;;;;;7.47;5.18;;;-1.90;99.90;;;;;;4908923;28;21327;-85
2024/01/17 08:27:01;;;;;;;8.50;5.95;;;-1.90;99.90;;;;;;4928344;28;20037;-85
2024/01/17 08:29:27;;;;;;;7.18;5.05;;;-1.90;99.90;;;;;;4904529;28;20356;-86
2024/01/17 08:31:55;;;;;;;6.32;4.32;;;-1.80;99.90;;;;;;4918720;28;20031;-84
2024/01/17 08:34:21;;;;;;;8.15;5.30;;;-1.80;99.90;;;;;;4942603;28;20034;-84
2024/01/17 08:36:47;;;;;;;6.95;5.57;;;-1.80;99.90;;;;;;4905516;28;20033;-86
2024/01/17 08:39:15;;;;;;;11.13;6.13;;;-1.90;99.90;;;;;;4917354;28;20041;-85
2024/01/17 08:41:45;;;;;;;10.13;5.97;;;-1.80;99.90;;;;;;4917827;28;20037;-86
2024/01/17 08:44:15;;;;;;;7.80;5.60;;;-1.80;99.90;;;;;;4911615;28;21402;-85
2024/01/17 08:47:07;;;;;;;11.20;5.22;;;-1.80;99.90;;;;;;4939837;28;20109;-85
2024/01/17 08:49:33;;;;;;;6.68;4.65;;;-1.80;99.90;;;;;;4922604;28;20049;-84
2024/01/17 08:51:59;;;;;;;8.38;4.35;;;-1.80;99.90;;;;;;4894504;28;20032;-85
2024/01/17 08:54:25;;;;;;;8.73;5.57;;;-1.70;99.90;;;;;;4894160;28;20052;-85
2024/01/17 08:56:51;;;;;;;8.88;5.18;;;-1.70;99.90;;;;;;4913299;28;20501;-84
2024/01/17 08:59:16;;;;;;;11.32;5.43;;;-1.70;99.90;;;;;;4924875;28;20030;-87
2024/01/17 09:01:42;;;;;;;6.97;4.38;;;-1.70;99.90;;;;;;4942524;28;20030;-84
2024/01/17 09:04:08;;;;;;;9.77;5.20;;;-1.70;99.90;;;;;;4904483;28;20134;-85
2024/01/17 09:06:35;;;;;;;8.63;4.55;;;-1.60;99.90;;;;;;4939637;28;21337;-86
2024/01/17 09:09:01;;;;;;;5.75;4.15;;;-1.60;99.90;;;;;;4950996;28;20134;-85
2024/01/17 09:11:26;;;;;;;6.75;4.63;;;-1.60;99.90;;;;;;4907147;28;20101;-86
2024/01/17 09:13:55;;;;;;;8.57;4.78;;;-1.60;99.90;;;;;;4928013;28;20561;-85
2024/01/17 09:16:21;;;;;;;6.68;4.20;;;-1.60;99.90;;;;;;4945748;28;20058;-85
2024/01/17 09:18:46;;;;;;;9.43;5.40;;;-1.60;99.90;;;;;;4894731;28;20065;-86
2024/01/17 09:21:12;;;;;;;5.78;5.13;;;-1.60;99.90;;;;;;4920512;28;20092;-85
2024/01/17 09:23:38;;;;;;;10.50;4.47;;;-1.60;99.90;;;;;;4919438;28;20046;-85
2024/01/17 09:26:04;;;;;;;5.30;3.30;;;-1.50;99.90;;;;;;4943331;28;20034;-86
2024/01/17 09:28:29;;;;;;;10.27;4.07;;;-1.50;99.90;;;;;;4975355;28;20046;-86
2024/01/17 09:30:55;;;;;;;6.97;3.90;;;-1.50;99.90;;;;;;4893600;28;20038;-86
2024/01/17 09:33:23;;;;;;;6.15;4.32;;;-1.50;99.90;;;;;;4906745;28;20034;-85
2024/01/17 09:35:48;;;;;;;9.43;4.78;;;-1.40;99.90;;;;;;4930195;28;20033;-87
2024/01/17 09:38:14;;;;;;;7.30;3.72;;;-1.40;99.90;;;;;;4914174;28;20014;-87
2024/01/17 09:40:40;;;;;;;6.75;4.10;;;-1.40;99.90;;;;;;4948474;28;20050;-87
2024/01/17 09:43:06;;;;;;;7.57;3.88;;;-1.30;99.90;;;;;;4901065;28;20054;-85
2024/01/17 09:45:33;;;;;;;8.77;3.90;;;-1.30;99.90;;;;;;4910495;28;21642;-87
2024/01/17 09:48:02;;;;;;;5.32;4.03;;;-1.20;99.90;;;;;;4931449;28;20613;-85
2024/01/17 09:50:27;;;;;;;6.70;4.43;;;-1.20;99.90;;;;;;4886502;28;20057;-86
2024/01/17 09:52:57;;;;;;;5.60;3.80;;;-1.20;99.90;;;;;;4881700;28;20066;-85
2024/01/17 09:55:25;;;;;;;6.68;4.00;;;-1.20;99.90;;;;;;4941971;28;20360;-86
2024/01/17 09:57:56;;;;;;;6.70;4.00;;;-1.10;99.90;;;;;;4901256;28;20043;-85
2024/01/17 10:00:28;;;;;;;6.60;3.70;;;-1.10;99.90;;;;;;4908243;28;20126;-86
2024/01/17 10:02:55;;;;;;;8.40;4.03;;;-1.10;99.90;;;;;;4939751;28;20111;-86
2024/01/17 10:05:23;;;;;;;5.63;3.45;;;-1.10;99.90;;;;;;4911772;28;20035;-85
2024/01/17 10:08:01;;;;;;;8.57;4.32;;;-1.00;99.90;;;;;;4948445;28;20027;-86
2024/01/17 10:10:27;;;;;;;6.88;4.68;;;-1.00;99.90;;;;;;4931025;28;20045;-85
2024/01/17 10:12:54;;;;;;;13.93;7.75;;;-1.00;99.90;;;;;;4934151;28;20030;-87
2024/01/17 10:15:22;;;;;;;13.52;7.47;;;-0.90;99.90;;;;;;4908306;28;20159;-86
2024/01/17 10:17:47;;;;;;;18.13;9.07;;;-0.90;99.90;;;;;;4905012;28;20085;-86
2024/01/17 10:20:13;;;;;;;9.88;7.57;;;-0.90;99.90;;;;;;4912082;28;21322;-86
2024/01/17 10:22:39;;;;;;;9.55;5.47;;;-0.90;99.90;;;;;;4952121;28;20023;-86
2024/01/17 10:25:05;;;;;;;5.28;3.92;;;-0.90;99.90;;;;;;4948006;28;20512;-84
2024/01/17 10:27:31;;;;;;;8.98;4.53;;;-0.80;99.90;;;;;;4890047;28;20031;-86
2024/01/17 10:29:57;;;;;;;8.18;3.97;;;-0.80;99.90;;;;;;4903898;28;20035;-85
2024/01/17 10:32:23;;;;;;;6.68;4.78;;;-0.80;99.90;;;;;;4898811;28;20560;-86
2024/01/17 10:35:04;;;;;;;7.72;4.28;;;-0.80;99.90;;;;;;4924383;28;20026;-85
2024/01/17 10:37:30;;;;;;;8.50;3.83;;;-0.80;99.90;;;;;;4938833;28;20037;-85
2024/01/17 10:40:10;;;;;;;7.65;4.07;;;-0.80;99.90;;;;;;4924841;28;20019;-85
2024/01/17 10:42:36;;;;;;;5.90;3.90;;;-0.70;99.90;;;;;;4900914;28;20607;-85
2024/01/17 10:45:01;;;;;;;5.10;3.85;;;-0.70;99.90;;;;;;4917220;28;20043;-87
2024/01/17 10:47:27;;;;;;;8.20;4.95;;;-0.70;99.90;;;;;;4904203;28;20049;-85
2024/01/17 10:50:02;;;;;;;5.10;3.97;;;-0.70;99.90;;;;;;4905226;28;20026;-85
2024/01/17 10:52:30;;;;;;;7.15;4.72;;;-0.70;99.90;;;;;;4962245;28;20026;-85
2024/01/17 10:55:04;;;;;;;7.60;4.05;;;-0.70;99.90;;;;;;4936672;28;20122;-85
2024/01/17 10:57:35;;;;;;;8.23;3.92;;;-0.70;99.90;;;;;;4889486;28;20040;-85
2024/01/17 11:00:03;;;;;;;6.07;3.88;;;-0.60;99.90;;;;;;4941612;28;20159;-86
2024/01/17 11:02:31;;;;;;;9.98;3.78;;;-0.60;99.90;;;;;;4901898;28;20218;-85
2024/01/17 11:05:11;;;;;;;6.60;3.88;;;-0.60;99.90;;;;;;4915677;28;20030;-85
2024/01/17 11:07:37;;;;;;;7.90;4.07;;;-0.60;99.90;;;;;;4947417;28;21502;-85
2024/01/17 11:10:04;;;;;;;6.55;3.70;;;-0.60;99.90;;;;;;4930099;28;20019;-86
2024/01/17 11:12:35;;;;;;;5.88;3.55;;;-0.60;99.90;;;;;;4913244;28;20125;-85
2024/01/17 11:15:03;;;;;;;4.68;3.35;;;-0.50;99.90;;;;;;4905471;28;20182;-86
2024/01/17 11:17:32;;;;;;;6.53;3.90;;;-0.50;99.90;;;;;;4930181;28;20018;-87
2024/01/17 11:19:59;;;;;;;9.07;4.13;;;-0.50;99.90;;;;;;4907025;28;20201;-85
2024/01/17 11:22:25;;;;;;;6.50;3.88;;;-0.50;99.90;;;;;;4931689;28;20030;-85
2024/01/17 11:24:57;;;;;;;8.60;4.55;;;-0.40;99.90;;;;;;4931217;28;20022;-86
2024/01/17 11:27:32;;;;;;;7.07;4.05;;;-0.40;99.90;;;;;;4901858;28;20557;-85
2024/01/17 11:30:14;;;;;;;7.65;3.78;;;-0.40;99.90;;;;;;4900414;28;20031;-85
2024/01/17 11:32:40;;;;;;;6.57;4.15;;;-0.40;99.90;;;;;;4899083;28;20030;-86
2024/01/17 11:35:06;;;;;;;6.65;3.92;;;-0.40;99.90;;;;;;4869809;28;21555;-85
2024/01/17 11:37:38;;;;;;;6.68;4.63;;;-0.40;99.90;;;;;;4904467;28;21440;-85
2024/01/17 11:40:05;;;;;;;8.68;3.55;;;-0.40;99.90;;;;;;4938450;28;20026;-85
2024/01/17 11:42:31;;;;;;;4.40;3.67;;;-0.40;99.90;;;;;;4894867;28;20031;-84
2024/01/17 11:44:58;;;;;;;6.35;4.43;;;-0.40;99.90;;;;;;4861058;28;20043;-85
2024/01/17 11:47:23;;;;;;;8.93;4.28;;;-0.30;99.90;;;;;;4885622;28;20073;-86
2024/01/17 11:49:54;;;;;;;8.75;4.75;;;-0.30;99.90;;;;;;4910856;28;20031;-86
2024/01/17 11:52:46;;;;;;;8.07;5.40;;;-0.30;99.90;;;;;;4908152;28;20030;-85
2024/01/17 11:55:12;;;;;;;9.90;5.38;;;-0.30;99.90;;;;;;4946191;28;20574;-83
2024/01/17 11:57:38;;;;;;;7.63;4.50;;;-0.20;99.90;;;;;;4942461;28;20550;-86
2024/01/17 12:00:12;;;;;;;12.90;5.72;;;-0.20;99.90;;;;;;4898390;28;20375;-86
2024/01/17 12:02:42;;;;;;;15.00;7.50;;;-0.30;99.90;;;;;;4904890;28;20027;-85
2024/01/17 12:05:10;;;;;;;13.10;7.22;;;-0.30;99.90;;;;;;4905913;28;20029;-86
2024/01/17 12:07:39;;;;;;;10.95;5.82;;;-0.30;99.90;;;;;;4916563;28;21194;-84
2024/01/17 12:10:10;;;;;;;14.60;7.00;;;-0.30;99.90;;;;;;4954352;28;20054;-85
2024/01/17 12:12:45;;;;;;;26.65;11.18;;;-0.30;99.90;;;;;;4917225;28;20033;-85
2024/01/17 12:15:11;;;;;;;20.67;11.07;;;-0.30;99.90;;;;;;4899791;28;20403;-85
2024/01/17 12:17:38;;;;;;;31.48;12.77;;;-0.20;99.90;;;;;;4936315;28;20129;-84
2024/01/17 12:20:08;;;;;;;29.05;13.38;;;-0.20;99.90;;;;;;4930909;28;20556;-85
2024/01/17 12:22:35;;;;;;;28.17;12.13;;;-0.20;99.90;;;;;;4924865;28;20722;-85
2024/01/17 12:25:01;;;;;;;14.07;7.68;;;-0.20;99.90;;;;;;4943826;28;20260;-86
2024/01/17 12:27:30;;;;;;;14.32;7.80;;;-0.20;99.90;;;;;;4926301;28;20621;-86
2024/01/17 12:30:04;;;;;;;12.60;5.60;;;-0.20;99.90;;;;;;4924307;28;20043;-85
2024/01/17 12:32:30;;;;;;;7.38;5.20;;;-0.20;99.90;;;;;;4945461;28;20022;-85
2024/01/17 12:34:56;;;;;;;7.47;5.40;;;-0.30;99.90;;;;;;4927419;28;20046;-86
2024/01/17 12:37:22;;;;;;;5.70;4.28;;;-0.30;99.90;;;;;;4932525;28;20041;-86
2024/01/17 12:39:48;;;;;;;5.35;4.43;;;-0.30;99.90;;;;;;4953374;28;20026;-86